Latest Coastal Weather Observations for Montague Island

IDN60701

Issued at 4:12 pm EST Monday 25 July 2016 (issued every 10 minutes, with the page automatically refreshed every 10 minutes)

About coastal observations | Map of coastal stations | Coastal observations for NSW | Marine services | Other Formats
Station Details ID: 069017 Name: MONTAGUE ISLAND LIGHTHOUSE Lat: -36.25 Lon: 150.23 Height: 52.0 m
Data from the previous 72 hours. | See also: Recent months at Montague Island
Date/Time
EST
Temp
°C
Wind Pressure Rain since
9am
mm
Weather Cloud Vis
km
Sea
Height
m
Swell
Dir  Spd
kts
Gust
kts
hPa Trend Height
m
Period
s
Dir
25/04:00pm 15.8 NW 12 19 1006.4 - 0.0 - - - - - - -
25/03:30pm 16.2 NNW 10 17 1006.6 - 0.0 - - - - - - -
25/03:00pm 16.8 NW 8 12 1006.5 - 0.0 - - - - - - -
25/02:30pm 15.9 N 11 17 1006.7 - 0.0 - - - - - - -
25/02:00pm 15.3 NNE 10 14 1006.9 - 0.0 - - - - - - -
25/01:30pm 15.8 NNE 10 14 1007.2 - 0.0 - - - - - - -
25/01:00pm 14.4 NNE 13 17 1007.3 - 0.0 - - - - - - -
25/12:30pm 14.3 N 9 13 1007.7 - 0.0 - - - - - - -
25/12:00pm 14.8 NNW 9 11 1008.0 - 0.0 - - - - - - -
25/11:30am 14.0 NNW 8 11 1008.6 - 0.0 - - - - - - -
25/11:00am 13.5 NNW 7 10 1008.9 - 0.0 - - - - - - -
25/10:30am 12.9 NW 8 11 1009.1 - 0.0 - - - - - - -
25/10:00am 13.0 WNW 9 12 1009.0 - 0.0 - - - - - - -
25/09:30am 11.8 NW 9 12 1008.8 - 0.0 - - - - - - -
25/09:00am 11.1 NW 10 16 1008.5 - 0.0 - - - - - - -
25/08:30am 10.6 NW 10 15 1008.5 - 0.0 - - - - - - -
25/08:00am 10.4 NW 10 16 1008.2 - 0.0 - - - - - - -
25/07:30am 9.4 NNW 8 13 1007.9 - 0.0 - - - - - - -
25/07:00am 9.7 NW 8 10 1007.6 - 0.0 - - - - - - -
25/06:30am 10.0 NNW 8 10 1007.2 - 0.0 - - - - - - -
25/06:00am 9.8 NW 8 10 1007.0 - 0.0 - - - - - - -
25/05:30am 9.5 NW 9 12 1006.8 - 0.0 - - - - - - -
25/05:00am 9.8 NW 9 13 1006.3 - 0.0 - - - - - - -
25/04:30am 9.8 NW 8 13 1006.1 - 0.0 - - - - - - -
25/04:00am 9.5 NW 8 10 1006.2 - 0.0 - - - - - - -
25/03:30am 9.5 NW 8 10 1006.1 - 0.0 - - - - - - -
25/03:00am 9.3 NW 7 9 1006.3 - 0.0 - - - - - - -
25/02:30am 10.8 NW 8 13 1006.5 - 0.0 - - - - - - -
25/02:00am 11.2 NNW 8 11 1006.6 - 0.0 - - - - - - -
25/01:30am 10.9 NNW 8 11 1006.9 - 0.0 - - - - - - -
25/01:00am 10.9 NNW 8 10 1007.0 - 0.0 - - - - - - -
25/12:30am 11.0 NNW 10 16 1007.1 - 0.0 - - - - - - -
25/12:00am 10.9 NNW 13 20 1007.3 - 0.0 - - - - - - -
 
Date/Time
EST
Temp
°C
Wind Pressure Rain since
9am
mm
Weather Cloud Vis
km
Sea
Height
m
Swell
Dir  Spd
kts
Gust
kts
hPa Trend Height
m
Period
s
Dir
24/11:30pm 10.9 NNW 17 23 1007.5 - 0.0 - - - - - - -
24/11:00pm 10.4 NNW 11 17 1007.8 - 0.0 - - - - - - -
24/10:30pm 10.8 NNW 11 17 1008.0 - 0.0 - - - - - - -
24/10:00pm 11.1 NNW 11 18 1008.3 - 0.0 - - - - - - -
24/09:30pm 11.4 NNW 13 20 1008.8 - 0.0 - - - - - - -
24/09:00pm 11.0 NW 12 19 1009.2 - 0.0 - - - - - - -
24/08:30pm 10.7 NNW 8 12 1009.3 - 0.0 - - - - - - -
24/08:00pm 10.8 NNW 12 18 1009.4 - 0.0 - - - - - - -
24/07:30pm 11.4 NNW 16 21 1009.2 - 0.0 - - - - - - -
24/07:00pm 11.6 NW 8 15 1009.3 - 0.0 - - - - - - -
24/06:30pm 12.0 WNW 9 12 1009.3 - 0.0 - - - - - - -
24/06:00pm 11.6 WNW 6 10 1008.9 - 0.0 - - - - - - -
24/05:30pm 11.5 WNW 6 9 1008.7 - 0.0 - - - - - - -
24/05:00pm 11.8 W 6 9 1009.0 - 0.0 - - - - - - -
24/04:30pm 12.3 W 12 16 1009.2 - 0.0 - - - - - - -
24/04:00pm 13.2 WNW 14 19 1008.9 - 0.0 - - - - - - -
24/03:30pm 12.9 SW 2 5 1008.9 - 0.0 - - - - - - -
24/03:00pm 12.8 N 5 9 1009.2 - 0.0 - - - - - - -
24/02:30pm 12.8 N 8 11 1009.5 - 0.0 - - - - - - -
24/02:00pm 12.8 N 10 16 1009.8 - 0.0 - - - - - - -
24/01:30pm 13.6 N 8 12 1010.1 - 0.0 - - - - - - -
24/01:00pm 12.7 N 9 13 1010.7 - 0.0 - - - - - - -
24/12:30pm 12.3 N 8 12 1011.2 - 0.0 - - - - - - -
24/12:00pm 12.8 NNE 6 10 1012.0 - 0.0 - - - - - - -
24/11:30am 12.5 NW 6 9 1012.4 - 0.0 - - - - - - -
24/11:00am 12.4 WNW 9 12 1012.8 - 0.0 - - - - - - -
24/10:30am 11.9 WNW 9 12 1013.3 - 0.0 - - - - - - -
24/10:00am 11.1 WNW 9 13 1013.6 - 0.0 - - - - - - -
24/09:30am 10.2 WNW 11 15 1013.6 - 0.0 - - - - - - -
24/09:00am 9.7 WNW 11 16 1013.4 - 0.0 - - - - - - -
24/08:30am 9.2 WNW 12 17 1013.1 - 0.0 - - - - - - -
24/08:00am 9.1 WNW 9 14 1013.1 - 0.0 - - - - - - -
24/07:30am 8.7 WNW 11 15 1012.8 - 0.0 - - - - - - -
24/07:00am 8.3 W 11 15 1012.7 - 0.0 - - - - - - -
24/06:30am 8.4 W 10 14 1012.5 - 0.0 - - - - - - -
24/06:00am 8.3 W 10 14 1012.3 - 0.0 - - - - - - -
24/05:30am 8.1 W 10 13 1012.3 - 0.0 - - - - - - -
24/05:00am 9.1 W 10 13 1011.9 - 0.0 - - - - - - -
24/04:30am 8.9 WNW 10 13 1011.7 - 0.0 - - - - - - -
24/04:00am 8.7 WNW 8 11 1011.5 - 0.0 - - - - - - -
24/03:30am 9.4 WNW 9 13 1011.1 - 0.0 - - - - - - -
24/03:00am 8.9 WNW 8 12 1011.0 - 0.0 - - - - - - -
24/02:30am 9.7 WNW 9 12 1011.1 - 0.0 - - - - - - -
24/02:00am 9.4 WNW 8 12 1010.8 - 0.0 - - - - - - -
24/01:30am 10.0 NW 9 15 1010.6 - 0.0 - - - - - - -
24/01:00am 10.4 WNW 8 12 1010.6 - 0.0 - - - - - - -
24/12:30am 10.4 WNW 8 11 1010.4 - 0.0 - - - - - - -
24/12:00am 10.9 WNW 9 13 1010.3 - 0.0 - - - - - - -
 
Date/Time
EST
Temp
°C
Wind Pressure Rain since
9am
mm
Weather Cloud Vis
km
Sea
Height
m
Swell
Dir  Spd
kts
Gust
kts
hPa Trend Height
m
Period
s
Dir
23/11:30pm 10.7 WNW 8 12 1010.2 - 0.0 - - - - - - -
23/11:00pm 10.4 NW 7 11 1009.9 - 0.0 - - - - - - -
23/10:30pm 11.0 WNW 10 15 1009.6 - 0.0 - - - - - - -
23/10:00pm 11.1 WNW 12 18 1009.1 - 0.0 - - - - - - -
23/09:30pm 11.1 WNW 11 16 1008.8 - 0.0 - - - - - - -
23/09:00pm 11.2 WNW 14 20 1008.5 - 0.0 - - - - - - -
23/08:30pm 11.2 WNW 12 17 1008.1 - 0.0 - - - - - - -
23/08:00pm 11.6 WNW 10 14 1007.8 - 0.0 - - - - - - -
23/07:30pm 11.4 WNW 7 9 1007.4 - 0.0 - - - - - - -
23/07:00pm 12.0 WNW 10 15 1006.8 - 0.0 - - - - - - -
23/06:30pm 12.2 W 13 18 1006.0 - 0.0 - - - - - - -
23/06:00pm 12.3 W 14 19 1005.2 - 0.0 - - - - - - -
23/05:30pm 12.6 WNW 13 19 1004.6 - 0.0 - - - - - - -
23/05:00pm 13.3 WNW 15 22 1003.8 - 0.0 - - - - - - -
23/04:30pm 14.1 W 18 25 1002.8 - 0.0 - - - - - - -
23/04:27pm 13.8 W 15 25 1002.9 - 0.0 - - - - - - -
23/04:00pm 13.3 S 11 14 1002.5 - 0.0 - - - - - - -
23/03:30pm 13.7 S 13 17 1001.5 - 0.0 - - - - - - -
23/03:00pm 14.0 S 9 15 1001.5 - 0.0 - - - - - - -
23/02:30pm 16.7 W 12 23 1000.8 - 0.0 - - - - - - -
23/02:28pm 16.6 WNW 16 26 1000.6 - 0.0 - - - - - - -
23/02:00pm 16.6 WNW 22 29 999.3 - 0.0 - - - - - - -
23/01:30pm 17.5 W 17 26 999.0 - 0.0 - - - - - - -
23/01:21pm 17.5 W 18 28 999.0 - 0.0 - - - - - - -
23/01:00pm 17.0 W 15 21 998.7 - 0.0 - - - - - - -
23/12:30pm 17.0 W 17 23 998.4 - 0.0 - - - - - - -
23/12:00pm 16.6 W 19 27 998.3 - 0.0 - - - - - - -
23/11:30am 16.2 WNW 22 29 997.9 - 0.0 - - - - - - -
23/11:00am 16.1 WNW 18 24 998.0 - 0.0 - - - - - - -
23/10:30am 15.6 W 16 22 998.1 - 0.0 - - - - - - -
23/10:00am 15.0 W 22 30 997.8 - 0.0 - - - - - - -
23/09:30am 14.3 W 23 33 997.3 - 0.0 - - - - - - -
23/09:00am 13.7 W 26 37 996.9 - 3.6 - - - - - - -
23/08:30am 13.2 W 27 38 995.8 - 3.6 - - - - - - -
23/08:00am 12.9 WNW 28 39 995.2 - 3.6 - - - - - - -
23/07:32am 12.8 WNW 32 43 994.7 - 3.6 - - - - - - -
23/07:30am 12.8 WNW 32 40 994.8 - 3.6 - - - - - - -
23/07:07am 12.6 WNW 27 39 994.3 - 3.6 - - - - - - -
23/07:00am 12.5 WNW 25 33 994.7 - 3.6 - - - - - - -
23/06:50am 12.4 WNW 26 36 994.3 - 3.6 - - - - - - -
23/06:30am 12.5 WNW 34 50 993.9 - 3.6 - - - - - - -
23/06:20am 13.0 WNW 34 46 993.8 - 3.6 - - - - - - -
23/06:15am 13.1 WNW 31 42 993.6 - 3.6 - - - - - - -
23/06:00am 13.3 WNW 25 37 993.8 - 3.6 - - - - - - -
23/05:33am 13.5 WNW 27 38 993.7 - 3.6 - - - - - - -
23/05:30am 13.5 WNW 28 38 993.5 - 3.6 - - - - - - -
23/05:04am 14.3 WNW 36 47 992.3 - 3.6 - - - - - - -
23/05:00am 14.1 WNW 36 45 992.5 - 3.6 - - - - - - -
23/04:30am 14.6 WNW 28 42 992.3 - 3.6 - - - - - - -
23/04:26am 14.7 WNW 29 42 992.2 - 3.6 - - - - - - -
23/04:21am 14.8 NW 25 42 992.0 - 3.6 - - - - - - -
23/04:00am 14.8 WNW 21 32 992.4 - 3.6 - - - - - - -
23/03:54am 14.9 WNW 20 32 992.9 - 3.6 - - - - - - -
23/03:30am 14.6 WNW 21 31 992.8 - 3.6 - - - - - - -
23/03:09am 14.9 WNW 21 37 992.5 - 3.6 - - - - - - -
23/03:00am 14.8 WNW 15 25 992.9 - 3.6 - - - - - - -
23/02:32am 15.3 WNW 23 33 993.0 - 3.6 - - - - - - -
23/02:30am 15.3 WNW 24 33 993.0 - 3.6 - - - - - - -
23/02:08am 15.7 WNW 25 35 993.2 - 3.6 - - - - - - -
23/02:00am 15.9 WNW 28 35 993.2 - 3.6 - - - - - - -
23/01:43am 16.2 WNW 21 39 993.0 - 3.6 - - - - - - -
23/01:30am 15.0 NW 11 25 992.9 - 3.6 - - - - - - -
23/01:00am 15.7 NW 13 22 992.7 - 3.6 - - - - - - -
23/12:44am 16.4 WNW 17 28 992.5 - 3.6 - - - - - - -
23/12:30am 16.5 WNW 19 27 992.9 - 3.6 - - - - - - -
23/12:02am 16.2 W 17 29 993.6 - 3.6 - - - - - - -
23/12:00am 15.8 W 16 23 993.7 - 3.6 - - - - - - -
 
Date/Time
EST
Temp
°C
Wind Pressure Rain since
9am
mm
Weather Cloud Vis
km
Sea
Height
m
Swell
Dir  Spd
kts
Gust
kts
hPa Trend Height
m
Period
s
Dir
22/11:30pm 15.8 W 18 21 994.2 - 3.6 - - - - - - -
22/11:00pm 16.1 W 19 23 994.3 - 3.6 - - - - - - -
22/10:30pm 16.4 W 21 24 994.3 - 3.6 - - - - - - -
22/10:00pm 16.3 W 18 23 994.7 - 3.6 - - - - - - -
22/09:30pm 16.4 WSW 21 27 995.1 - 3.6 - - - - - - -
22/09:00pm 16.8 W 20 25 995.0 - 3.6 - - - - - - -
22/08:49pm 17.2 WSW 15 22 994.9 - 3.6 - - - - - - -
22/08:30pm 16.7 W 10 11 995.1 - 3.6 - - - - - - -
22/08:00pm 17.1 W 8 11 995.3 - 3.6 - - - - - - -
22/07:30pm 16.5 WSW 9 13 995.5 - 3.4 - - - - - - -
22/07:00pm 17.4 SW 8 11 995.1 - 2.0 - - - - - - -
22/06:30pm 18.9 WNW 8 9 994.7 - 1.8 - - - - - - -
22/06:00pm 18.3 NW 8 11 994.5 - 1.8 Recent precip. - - - - - -
22/05:30pm 17.9 WNW 9 11 995.0 - 1.8 - - - - - - -
22/05:00pm 18.0 WNW 10 14 994.8 - 1.2 - - - - - - -
22/04:30pm 19.4 NW 18 25 993.5 - 0.0 - - - - - - -

Other Formats:

Comma delimited format used in spreadsheet applications
http://www.bom.gov.au/fwo/IDN60701/IDN60701.94939.axf

JavaScript Object Notation format (JSON) in row-major order
http://www.bom.gov.au/fwo/IDN60701/IDN60701.94939.json